createdAt,value
2018-06-22T00:01:06.353Z,3.10
2018-06-22T00:05:40.944Z,3.17
2018-06-22T00:10:15.264Z,2.83
2018-06-22T00:14:49.933Z,2.90
2018-06-22T00:19:24.369Z,3.17
2018-06-22T00:23:59.208Z,3.57
2018-06-22T00:28:33.561Z,3.90
2018-06-22T00:33:07.964Z,3.07
2018-06-22T00:37:42.282Z,3.20
2018-06-22T00:42:17.225Z,4.37
2018-06-22T00:46:52.905Z,3.57
2018-06-22T00:51:28.724Z,3.33
2018-06-22T00:56:03.306Z,3.23
2018-06-22T01:00:37.477Z,3.20
2018-06-22T01:05:12.325Z,3.30
2018-06-22T01:09:46.709Z,3.67
2018-06-22T01:14:20.909Z,3.70
2018-06-22T01:18:55.293Z,3.50
2018-06-22T01:23:29.489Z,3.70
2018-06-22T01:28:03.957Z,3.20
2018-06-22T01:32:38.329Z,3.50
2018-06-22T01:37:12.554Z,3.67
2018-06-22T01:41:46.879Z,3.80
2018-06-22T01:46:21.397Z,3.70
2018-06-22T01:50:55.739Z,3.57
2018-06-22T01:55:30.273Z,3.77
2018-06-22T02:00:04.767Z,3.80
2018-06-22T02:04:39.345Z,4.03
2018-06-22T02:09:14.309Z,3.87
2018-06-22T02:13:49.017Z,3.70
2018-06-22T02:18:23.391Z,4.00
2018-06-22T02:22:57.645Z,3.83
2018-06-22T02:27:32.114Z,3.70
2018-06-22T02:32:06.171Z,4.37
2018-06-22T02:36:40.469Z,4.70
2018-06-22T02:41:14.848Z,4.10
2018-06-22T02:45:49.281Z,5.37
2018-06-22T02:50:23.450Z,4.67
2018-06-22T02:54:58.025Z,5.27
2018-06-22T02:59:32.562Z,4.90
2018-06-22T03:04:07.086Z,4.80
2018-06-22T03:08:41.322Z,4.40
2018-06-22T03:13:15.555Z,4.70
2018-06-22T03:17:50.046Z,4.87
2018-06-22T03:22:24.546Z,4.80
2018-06-22T03:26:58.757Z,4.73
2018-06-22T03:31:33.085Z,4.37
2018-06-22T03:36:07.530Z,4.30
2018-06-22T03:40:41.868Z,5.27
2018-06-22T03:45:16.329Z,5.03
2018-06-22T03:49:50.849Z,5.13
2018-06-22T03:54:25.249Z,5.10
2018-06-22T03:59:00.345Z,4.80
2018-06-22T04:03:34.537Z,5.30
2018-06-22T04:08:08.842Z,4.73
2018-06-22T04:12:43.587Z,4.63
2018-06-22T04:17:18.135Z,4.37
2018-06-22T04:21:52.521Z,5.70
2018-06-22T04:26:26.961Z,4.53
2018-06-22T04:31:01.506Z,4.47
2018-06-22T04:35:35.812Z,5.23
2018-06-22T04:40:10.361Z,5.10
2018-06-22T04:44:44.688Z,4.80
2018-06-22T04:49:18.989Z,4.57
2018-06-22T04:53:53.441Z,4.43
2018-06-22T04:58:28.009Z,4.30
2018-06-22T05:03:03.257Z,15.73
2018-06-22T05:07:37.557Z,3.57
2018-06-22T05:12:11.871Z,4.00
2018-06-22T05:16:46.425Z,3.60
2018-06-22T05:21:20.894Z,3.43
2018-06-22T05:25:55.154Z,3.00
2018-06-22T05:30:29.657Z,3.57
2018-06-22T05:35:04.049Z,3.43
2018-06-22T05:39:38.401Z,2.97
2018-06-22T05:44:12.938Z,3.07
2018-06-22T05:48:47.257Z,3.20
2018-06-22T05:53:22.321Z,2.85
2018-06-22T05:57:56.894Z,2.30
2018-06-22T06:02:31.257Z,2.60
2018-06-22T06:07:05.834Z,2.72
2018-06-22T06:11:40.264Z,2.27
2018-06-22T06:16:14.662Z,2.50
2018-06-22T06:20:49.209Z,2.52
2018-06-22T06:25:24.110Z,2.90
2018-06-22T06:29:58.526Z,2.77
2018-06-22T06:34:32.557Z,2.17
2018-06-22T06:39:07.759Z,2.05
2018-06-22T06:43:42.129Z,1.80
2018-06-22T06:48:16.471Z,2.37
2018-06-22T06:52:51.438Z,1.75
2018-06-22T06:57:25.813Z,2.00
2018-06-22T07:02:00.903Z,2.30
2018-06-22T07:06:35.293Z,2.65
2018-06-22T07:11:09.550Z,1.92
2018-06-22T07:15:43.839Z,2.17
2018-06-22T07:20:18.173Z,2.25
2018-06-22T07:24:52.670Z,1.80
2018-06-22T07:29:27.116Z,1.87
2018-06-22T07:34:01.560Z,2.12
2018-06-22T07:38:35.830Z,2.10
2018-06-22T07:43:10.600Z,2.05
2018-06-22T07:47:44.773Z,2.90
2018-06-22T07:52:19.106Z,2.25
2018-06-22T07:56:53.556Z,2.17
2018-06-22T08:01:28.057Z,2.92
2018-06-22T08:06:02.249Z,2.20
2018-06-22T08:10:36.697Z,2.30
2018-06-22T08:15:10.723Z,1.87
2018-06-22T08:19:44.889Z,1.40
2018-06-22T08:24:19.359Z,1.60
2018-06-22T08:28:53.897Z,1.67
2018-06-22T08:33:28.323Z,2.00
2018-06-22T08:38:02.637Z,2.30
2018-06-22T08:42:36.929Z,1.90
2018-06-22T08:47:12.805Z,1.80
2018-06-22T08:51:47.456Z,1.85
2018-06-22T08:56:22.314Z,1.98
2018-06-22T09:00:56.875Z,1.27
2018-06-22T09:05:31.621Z,1.17
2018-06-22T09:10:06.365Z,1.67
2018-06-22T09:14:40.770Z,1.52
2018-06-22T09:19:15.102Z,1.22
2018-06-22T09:23:49.426Z,1.85
2018-06-22T09:28:24.193Z,1.60
2018-06-22T09:32:58.685Z,1.87
2018-06-22T09:37:33.078Z,1.47
2018-06-22T09:42:07.401Z,1.12
2018-06-22T09:46:41.721Z,1.32
2018-06-22T09:51:16.693Z,1.35
2018-06-22T09:55:51.194Z,1.52
2018-06-22T10:00:26.879Z,1.32
2018-06-22T10:05:01.320Z,1.25
2018-06-22T10:09:35.652Z,1.25
2018-06-22T10:14:10.558Z,1.22
2018-06-22T10:18:45.385Z,1.65
2018-06-22T10:23:20.025Z,1.57
2018-06-22T10:27:55.151Z,1.60
2018-06-22T10:32:29.355Z,1.40
2018-06-22T10:37:03.586Z,1.50
2018-06-22T10:41:37.973Z,1.35
2018-06-22T10:46:12.938Z,1.32
2018-06-22T10:50:47.374Z,1.22
2018-06-22T10:55:21.663Z,1.30
2018-06-22T10:59:57.334Z,1.22
2018-06-22T11:04:32.682Z,1.20
2018-06-22T11:09:09.519Z,1.65
2018-06-22T11:13:43.805Z,1.00
2018-06-22T11:18:18.416Z,1.30
2018-06-22T11:22:52.838Z,1.40
2018-06-22T11:27:27.379Z,1.40
2018-06-22T11:32:01.734Z,1.67
2018-06-22T11:36:36.524Z,1.22
2018-06-22T11:41:10.858Z,1.50
2018-06-22T11:45:45.113Z,1.40
2018-06-22T11:50:19.521Z,1.17
2018-06-22T11:54:53.973Z,1.20
2018-06-22T11:59:28.334Z,1.60
2018-06-22T12:04:02.791Z,1.52
2018-06-22T12:08:37.517Z,1.50
2018-06-22T12:13:12.077Z,1.17
2018-06-22T12:17:46.584Z,1.27
2018-06-22T12:22:21.058Z,1.20
2018-06-22T12:26:55.279Z,1.27
2018-06-22T12:31:29.501Z,1.10
2018-06-22T12:36:04.554Z,1.20
2018-06-22T12:40:39.119Z,1.40
2018-06-22T12:45:13.372Z,1.05
2018-06-22T12:49:47.487Z,1.20
2018-06-22T12:54:22.058Z,1.22
2018-06-22T12:58:56.640Z,1.22
2018-06-22T13:03:31.193Z,1.42
2018-06-22T13:08:06.093Z,1.12
2018-06-22T13:12:40.450Z,1.10
2018-06-22T13:17:15.212Z,1.62
2018-06-22T13:21:52.001Z,1.30
2018-06-22T13:26:26.205Z,1.55
2018-06-22T13:31:00.674Z,1.57
2018-06-22T13:35:34.948Z,1.30
2018-06-22T13:44:45.732Z,1.30
2018-06-22T13:49:20.330Z,1.40
2018-06-22T13:53:54.686Z,1.22
2018-06-22T13:58:29.317Z,1.50
2018-06-22T14:03:04.065Z,1.62
2018-06-22T14:07:39.456Z,1.32
2018-06-22T14:12:14.611Z,1.30
2018-06-22T14:16:49.070Z,2.20
2018-06-22T14:21:23.713Z,1.22
2018-06-22T14:25:58.595Z,1.37
2018-06-22T14:30:33.242Z,1.50
2018-06-22T14:35:07.812Z,1.50
2018-06-22T14:39:42.233Z,1.47
2018-06-22T14:44:16.660Z,1.30
2018-06-22T14:48:51.203Z,2.00
2018-06-22T14:53:31.581Z,1.90
2018-06-22T14:58:12.404Z,1.30
2018-06-22T15:02:51.786Z,1.57
2018-06-22T15:07:31.245Z,1.60
2018-06-22T15:12:05.941Z,1.70
2018-06-22T15:16:40.282Z,1.50
2018-06-22T15:21:14.699Z,1.40
2018-06-22T15:25:49.220Z,1.40
2018-06-22T15:30:23.786Z,1.45
2018-06-22T15:35:03.394Z,1.82
2018-06-22T15:39:42.979Z,2.00
2018-06-22T15:44:22.616Z,1.70
2018-06-22T15:49:02.445Z,1.80
2018-06-22T15:53:42.000Z,1.65
2018-06-22T15:58:16.589Z,1.65
2018-06-22T16:02:56.445Z,1.70
2018-06-22T16:07:31.026Z,1.60
2018-06-22T16:12:10.804Z,2.60
2018-06-22T16:16:50.321Z,2.00
2018-06-22T16:21:30.121Z,1.40
2018-06-22T16:26:09.834Z,1.82
2018-06-22T16:30:44.324Z,1.50
2018-06-22T16:35:18.725Z,1.77
2018-06-22T16:39:53.077Z,1.50
2018-06-22T16:44:27.401Z,1.40
2018-06-22T16:49:01.853Z,1.45
2018-06-22T16:53:36.314Z,2.00
2018-06-22T16:58:15.989Z,1.80
2018-06-22T17:02:50.483Z,1.67
2018-06-22T17:07:29.997Z,2.20
2018-06-22T17:12:09.261Z,3.65
2018-06-22T17:17:52.654Z,4.12
2018-06-22T17:22:27.606Z,2.98
2018-06-22T17:27:01.965Z,1.98
2018-06-22T17:31:36.875Z,2.12
2018-06-22T17:36:11.539Z,2.42
2018-06-22T17:40:45.909Z,2.47
2018-06-22T17:45:20.313Z,2.30
2018-06-22T17:49:54.609Z,2.30
2018-06-22T17:54:28.922Z,2.00
2018-06-22T17:59:08.566Z,2.00
2018-06-22T18:03:48.158Z,2.30
2018-06-22T18:08:27.731Z,2.30
2018-06-22T18:13:02.325Z,2.70
2018-06-22T18:17:36.804Z,2.08
2018-06-22T18:22:11.198Z,2.00
2018-06-22T18:26:45.765Z,2.33
2018-06-22T18:31:20.130Z,2.67
2018-06-22T18:35:54.377Z,2.40
2018-06-22T18:40:28.534Z,2.15
2018-06-22T18:45:03.264Z,2.40
2018-06-22T18:49:37.665Z,2.40
2018-06-22T18:54:17.348Z,2.45
2018-06-22T18:59:59.230Z,2.52
2018-06-22T19:04:33.629Z,3.15
2018-06-22T19:09:08.858Z,2.55
2018-06-22T19:13:43.541Z,2.30
2018-06-22T19:18:18.094Z,2.50
2018-06-22T19:22:52.389Z,2.50
2018-06-22T19:27:26.737Z,2.52
2018-06-22T19:32:01.069Z,2.60
2018-06-22T19:36:35.383Z,2.42
2018-06-22T19:41:09.645Z,2.87
2018-06-22T19:45:49.218Z,2.83
2018-06-22T19:50:28.761Z,3.00
2018-06-22T19:55:03.178Z,3.10
2018-06-22T19:59:37.674Z,3.33
2018-06-22T20:04:11.986Z,2.75
2018-06-22T20:08:46.453Z,2.80
2018-06-22T20:13:20.745Z,3.25
2018-06-22T20:17:55.694Z,3.10
2018-06-22T20:22:30.267Z,2.95
2018-06-22T20:27:04.857Z,3.05
2018-06-22T20:31:40.637Z,3.10
2018-06-22T20:36:20.408Z,3.27
2018-06-22T20:40:59.684Z,2.87
2018-06-22T20:45:39.950Z,3.33
2018-06-22T20:50:19.849Z,3.50
2018-06-22T20:54:54.452Z,3.27
2018-06-22T20:59:29.194Z,3.90
2018-06-22T21:04:03.742Z,4.05
2018-06-22T21:08:37.933Z,4.10
2018-06-22T21:13:12.579Z,4.25
2018-06-22T21:17:47.881Z,6.30
2018-06-22T21:22:22.366Z,5.00
2018-06-22T21:27:00.856Z,4.40
2018-06-22T21:31:40.526Z,3.65
2018-06-22T21:36:20.178Z,3.37
2018-06-22T21:40:54.544Z,4.20
2018-06-22T21:45:28.909Z,4.50
2018-06-22T21:50:03.236Z,4.28
2018-06-22T21:54:37.589Z,4.00
2018-06-22T21:59:11.456Z,4.40
2018-06-22T22:03:46.025Z,4.47
2018-06-22T22:08:20.310Z,4.83
2018-06-22T22:12:54.762Z,4.33
2018-06-22T22:17:29.174Z,4.67
2018-06-22T22:22:03.749Z,4.50
2018-06-22T22:26:38.053Z,4.50
2018-06-22T22:31:12.297Z,5.07
2018-06-22T22:35:46.853Z,4.57
2018-06-22T22:40:21.254Z,4.70
2018-06-22T22:44:55.705Z,4.63
2018-06-22T22:49:30.532Z,4.47
2018-06-22T22:54:05.082Z,4.67
2018-06-22T22:58:39.569Z,5.00
2018-06-22T23:03:14.025Z,5.20
2018-06-22T23:07:48.514Z,5.23
2018-06-22T23:12:22.883Z,5.30
2018-06-22T23:16:58.326Z,5.30
2018-06-22T23:21:32.614Z,5.30
2018-06-22T23:26:07.453Z,5.37
2018-06-22T23:30:41.917Z,5.37
2018-06-22T23:35:19.765Z,5.43
2018-06-22T23:39:54.174Z,5.80
2018-06-22T23:44:28.622Z,5.30
2018-06-22T23:49:03.140Z,6.13
2018-06-22T23:53:37.569Z,5.70
2018-06-22T23:58:11.854Z,5.97
